sensor_id;sensor_type;location;lat;lon;timestamp;temperature;humidity
66184;DHT22;52989;48.796;9.806;2023-05-29T00:01:27;10.90;95.90
66184;DHT22;52989;48.796;9.806;2023-05-29T00:03:52;10.80;96.30
66184;DHT22;52989;48.796;9.806;2023-05-29T00:06:21;10.70;97.10
66184;DHT22;52989;48.796;9.806;2023-05-29T00:08:46;10.80;97.00
66184;DHT22;52989;48.796;9.806;2023-05-29T00:11:12;10.70;97.50
66184;DHT22;52989;48.796;9.806;2023-05-29T00:13:38;10.70;97.50
66184;DHT22;52989;48.796;9.806;2023-05-29T00:16:03;10.70;97.80
66184;DHT22;52989;48.796;9.806;2023-05-29T00:18:30;10.70;97.90
66184;DHT22;52989;48.796;9.806;2023-05-29T00:20:55;10.60;98.20
66184;DHT22;52989;48.796;9.806;2023-05-29T00:23:21;10.60;98.90
66184;DHT22;52989;48.796;9.806;2023-05-29T00:25:46;10.50;99.00
66184;DHT22;52989;48.796;9.806;2023-05-29T00:28:12;10.50;99.10
66184;DHT22;52989;48.796;9.806;2023-05-29T00:30:38;10.50;99.20
66184;DHT22;52989;48.796;9.806;2023-05-29T00:33:03;10.40;99.40
66184;DHT22;52989;48.796;9.806;2023-05-29T00:35:29;10.30;99.80
66184;DHT22;52989;48.796;9.806;2023-05-29T00:37:55;10.20;99.90
66184;DHT22;52989;48.796;9.806;2023-05-29T00:40:20;10.10;99.90
66184;DHT22;52989;48.796;9.806;2023-05-29T00:42:46;10.10;99.90
66184;DHT22;52989;48.796;9.806;2023-05-29T00:45:11;10.10;99.90
66184;DHT22;52989;48.796;9.806;2023-05-29T00:47:39;10.10;99.90
66184;DHT22;52989;48.796;9.806;2023-05-29T00:50:05;10.30;99.60
66184;DHT22;52989;48.796;9.806;2023-05-29T00:52:31;10.40;98.80
66184;DHT22;52989;48.796;9.806;2023-05-29T00:54:56;10.50;98.30
66184;DHT22;52989;48.796;9.806;2023-05-29T00:57:22;10.80;98.00
66184;DHT22;52989;48.796;9.806;2023-05-29T00:59:48;10.80;97.30
66184;DHT22;52989;48.796;9.806;2023-05-29T01:02:14;10.60;97.30
66184;DHT22;52989;48.796;9.806;2023-05-29T01:04:40;10.50;97.80
66184;DHT22;52989;48.796;9.806;2023-05-29T01:07:05;10.40;97.90
66184;DHT22;52989;48.796;9.806;2023-05-29T01:09:32;10.20;98.40
66184;DHT22;52989;48.796;9.806;2023-05-29T01:25:46;9.90;99.90
66184;DHT22;52989;48.796;9.806;2023-05-29T01:28:15;10.00;99.60
66184;DHT22;52989;48.796;9.806;2023-05-29T01:30:42;10.00;99.60
66184;DHT22;52989;48.796;9.806;2023-05-29T01:33:08;9.90;99.90
66184;DHT22;52989;48.796;9.806;2023-05-29T01:35:34;9.80;99.90
66184;DHT22;52989;48.796;9.806;2023-05-29T01:37:59;9.80;99.90
66184;DHT22;52989;48.796;9.806;2023-05-29T01:40:25;9.90;99.80
66184;DHT22;52989;48.796;9.806;2023-05-29T01:42:50;9.90;99.50
66184;DHT22;52989;48.796;9.806;2023-05-29T01:45:16;10.10;99.20
66184;DHT22;52989;48.796;9.806;2023-05-29T01:47:42;10.00;98.80
66184;DHT22;52989;48.796;9.806;2023-05-29T01:50:08;10.00;98.70
66184;DHT22;52989;48.796;9.806;2023-05-29T01:52:33;9.90;99.00
66184;DHT22;52989;48.796;9.806;2023-05-29T01:54:59;9.90;99.20
66184;DHT22;52989;48.796;9.806;2023-05-29T01:57:26;9.80;98.90
66184;DHT22;52989;48.796;9.806;2023-05-29T01:59:51;9.80;99.00
66184;DHT22;52989;48.796;9.806;2023-05-29T02:02:17;9.70;98.90
66184;DHT22;52989;48.796;9.806;2023-05-29T02:04:43;9.80;99.90
66184;DHT22;52989;48.796;9.806;2023-05-29T02:07:08;9.60;99.40
66184;DHT22;52989;48.796;9.806;2023-05-29T02:09:34;9.60;99.60
66184;DHT22;52989;48.796;9.806;2023-05-29T02:12:00;9.50;99.90
66184;DHT22;52989;48.796;9.806;2023-05-29T02:14:27;9.50;99.90
66184;DHT22;52989;48.796;9.806;2023-05-29T02:16:52;9.50;99.90
66184;DHT22;52989;48.796;9.806;2023-05-29T02:19:18;9.50;99.90
66184;DHT22;52989;48.796;9.806;2023-05-29T02:21:44;9.40;99.90
66184;DHT22;52989;48.796;9.806;2023-05-29T02:24:09;9.40;99.90
66184;DHT22;52989;48.796;9.806;2023-05-29T02:26:35;9.40;99.90
66184;DHT22;52989;48.796;9.806;2023-05-29T02:29:03;9.40;99.90
66184;DHT22;52989;48.796;9.806;2023-05-29T02:31:31;9.50;99.90
66184;DHT22;52989;48.796;9.806;2023-05-29T02:33:56;9.40;99.90
66184;DHT22;52989;48.796;9.806;2023-05-29T02:36:21;9.50;99.90
66184;DHT22;52989;48.796;9.806;2023-05-29T02:38:47;9.50;99.90
66184;DHT22;52989;48.796;9.806;2023-05-29T02:41:12;9.40;99.90
66184;DHT22;52989;48.796;9.806;2023-05-29T02:43:38;9.40;99.90
66184;DHT22;52989;48.796;9.806;2023-05-29T02:46:03;9.40;99.90
66184;DHT22;52989;48.796;9.806;2023-05-29T02:48:29;9.30;99.90
66184;DHT22;52989;48.796;9.806;2023-05-29T02:50:54;9.70;99.90
66184;DHT22;52989;48.796;9.806;2023-05-29T02:53:20;9.30;99.90
66184;DHT22;52989;48.796;9.806;2023-05-29T02:55:45;9.10;99.90
66184;DHT22;52989;48.796;9.806;2023-05-29T02:58:12;9.10;99.90
66184;DHT22;52989;48.796;9.806;2023-05-29T03:00:37;9.00;99.90
66184;DHT22;52989;48.796;9.806;2023-05-29T03:03:03;9.00;99.90
66184;DHT22;52989;48.796;9.806;2023-05-29T03:05:29;9.10;99.90
66184;DHT22;52989;48.796;9.806;2023-05-29T03:07:55;9.00;99.90
66184;DHT22;52989;48.796;9.806;2023-05-29T03:10:21;9.10;99.90
66184;DHT22;52989;48.796;9.806;2023-05-29T03:12:46;9.10;99.90
66184;DHT22;52989;48.796;9.806;2023-05-29T03:15:12;9.10;99.90
66184;DHT22;52989;48.796;9.806;2023-05-29T03:17:37;9.10;99.90
66184;DHT22;52989;48.796;9.806;2023-05-29T03:20:03;9.20;99.90
66184;DHT22;52989;48.796;9.806;2023-05-29T03:22:31;9.40;99.90
66184;DHT22;52989;48.796;9.806;2023-05-29T03:24:57;9.20;99.90
66184;DHT22;52989;48.796;9.806;2023-05-29T03:27:23;9.00;99.90
66184;DHT22;52989;48.796;9.806;2023-05-29T03:29:48;9.20;99.90
66184;DHT22;52989;48.796;9.806;2023-05-29T03:32:14;9.20;99.90
66184;DHT22;52989;48.796;9.806;2023-05-29T03:34:39;9.30;99.90
66184;DHT22;52989;48.796;9.806;2023-05-29T03:37:05;9.40;99.90
66184;DHT22;52989;48.796;9.806;2023-05-29T03:39:31;9.30;99.90
66184;DHT22;52989;48.796;9.806;2023-05-29T03:41:56;9.20;99.90
66184;DHT22;52989;48.796;9.806;2023-05-29T03:44:22;9.20;99.90
66184;DHT22;52989;48.796;9.806;2023-05-29T03:46:47;9.00;99.90
66184;DHT22;52989;48.796;9.806;2023-05-29T03:49:12;9.00;99.90
66184;DHT22;52989;48.796;9.806;2023-05-29T03:51:38;9.00;99.90
66184;DHT22;52989;48.796;9.806;2023-05-29T03:54:03;9.10;99.90
66184;DHT22;52989;48.796;9.806;2023-05-29T03:56:29;9.00;99.90
66184;DHT22;52989;48.796;9.806;2023-05-29T03:58:55;9.10;99.90
66184;DHT22;52989;48.796;9.806;2023-05-29T04:01:21;9.10;99.90
66184;DHT22;52989;48.796;9.806;2023-05-29T04:03:46;9.50;99.90
66184;DHT22;52989;48.796;9.806;2023-05-29T04:06:12;9.70;99.90
66184;DHT22;52989;48.796;9.806;2023-05-29T04:08:38;9.70;99.90
66184;DHT22;52989;48.796;9.806;2023-05-29T04:11:03;9.50;99.90
66184;DHT22;52989;48.796;9.806;2023-05-29T04:13:29;9.50;99.90
66184;DHT22;52989;48.796;9.806;2023-05-29T04:15:54;9.20;99.90
66184;DHT22;52989;48.796;9.806;2023-05-29T04:18:20;9.10;99.90
66184;DHT22;52989;48.796;9.806;2023-05-29T04:20:46;9.00;99.90
66184;DHT22;52989;48.796;9.806;2023-05-29T04:23:12;9.10;99.90
66184;DHT22;52989;48.796;9.806;2023-05-29T04:25:38;9.30;99.90
66184;DHT22;52989;48.796;9.806;2023-05-29T04:28:04;9.20;99.90
66184;DHT22;52989;48.796;9.806;2023-05-29T04:30:29;9.70;99.90
66184;DHT22;52989;48.796;9.806;2023-05-29T04:32:55;9.60;99.90
66184;DHT22;52989;48.796;9.806;2023-05-29T04:35:21;9.50;99.90
66184;DHT22;52989;48.796;9.806;2023-05-29T04:37:47;9.30;99.90
66184;DHT22;52989;48.796;9.806;2023-05-29T04:40:12;9.60;99.90
66184;DHT22;52989;48.796;9.806;2023-05-29T04:42:42;9.50;99.90
66184;DHT22;52989;48.796;9.806;2023-05-29T04:45:10;9.30;99.90
66184;DHT22;52989;48.796;9.806;2023-05-29T04:47:35;9.70;99.90
66184;DHT22;52989;48.796;9.806;2023-05-29T04:50:09;9.60;99.90
66184;DHT22;52989;48.796;9.806;2023-05-29T04:52:36;9.80;99.90
66184;DHT22;52989;48.796;9.806;2023-05-29T04:55:02;9.70;99.90
66184;DHT22;52989;48.796;9.806;2023-05-29T04:57:28;9.60;99.90
66184;DHT22;52989;48.796;9.806;2023-05-29T04:59:53;9.60;99.90
66184;DHT22;52989;48.796;9.806;2023-05-29T05:02:18;9.60;99.90
66184;DHT22;52989;48.796;9.806;2023-05-29T05:04:44;9.60;99.90
66184;DHT22;52989;48.796;9.806;2023-05-29T05:07:10;9.60;99.90
66184;DHT22;52989;48.796;9.806;2023-05-29T05:09:36;9.70;99.90
66184;DHT22;52989;48.796;9.806;2023-05-29T05:12:01;10.20;99.90
66184;DHT22;52989;48.796;9.806;2023-05-29T05:14:27;10.30;99.90
66184;DHT22;52989;48.796;9.806;2023-05-29T05:16:53;10.40;99.90
66184;DHT22;52989;48.796;9.806;2023-05-29T05:19:18;10.40;99.90
66184;DHT22;52989;48.796;9.806;2023-05-29T05:21:44;10.40;99.90
66184;DHT22;52989;48.796;9.806;2023-05-29T05:24:09;10.80;99.90
66184;DHT22;52989;48.796;9.806;2023-05-29T05:26:35;10.80;99.90
66184;DHT22;52989;48.796;9.806;2023-05-29T05:29:00;10.90;99.90
66184;DHT22;52989;48.796;9.806;2023-05-29T05:31:26;10.90;99.90
66184;DHT22;52989;48.796;9.806;2023-05-29T05:33:52;10.80;99.90
66184;DHT22;52989;48.796;9.806;2023-05-29T05:36:17;10.90;99.90
66184;DHT22;52989;48.796;9.806;2023-05-29T05:38:43;10.90;99.90
66184;DHT22;52989;48.796;9.806;2023-05-29T05:41:08;11.00;99.90
66184;DHT22;52989;48.796;9.806;2023-05-29T05:43:33;11.10;99.90
66184;DHT22;52989;48.796;9.806;2023-05-29T05:45:59;11.30;99.90
66184;DHT22;52989;48.796;9.806;2023-05-29T05:48:25;11.40;99.90
66184;DHT22;52989;48.796;9.806;2023-05-29T05:50:50;11.50;99.90
66184;DHT22;52989;48.796;9.806;2023-05-29T05:53:15;11.60;99.90
66184;DHT22;52989;48.796;9.806;2023-05-29T05:55:42;11.80;99.90
66184;DHT22;52989;48.796;9.806;2023-05-29T05:58:08;12.00;99.80
66184;DHT22;52989;48.796;9.806;2023-05-29T06:00:33;12.10;99.80
66184;DHT22;52989;48.796;9.806;2023-05-29T06:02:59;12.30;99.20
66184;DHT22;52989;48.796;9.806;2023-05-29T06:05:25;12.40;99.20
66184;DHT22;52989;48.796;9.806;2023-05-29T06:07:51;12.50;99.50
66184;DHT22;52989;48.796;9.806;2023-05-29T06:10:17;12.70;98.60
66184;DHT22;52989;48.796;9.806;2023-05-29T06:12:42;12.80;99.00
66184;DHT22;52989;48.796;9.806;2023-05-29T06:15:08;12.80;99.90
66184;DHT22;52989;48.796;9.806;2023-05-29T06:17:34;12.80;99.60
66184;DHT22;52989;48.796;9.806;2023-05-29T06:20:00;13.00;98.90
66184;DHT22;52989;48.796;9.806;2023-05-29T06:22:25;13.20;97.70
66184;DHT22;52989;48.796;9.806;2023-05-29T06:24:51;13.50;97.00
66184;DHT22;52989;48.796;9.806;2023-05-29T06:27:16;14.00;95.00
66184;DHT22;52989;48.796;9.806;2023-05-29T06:29:43;14.00;95.80
66184;DHT22;52989;48.796;9.806;2023-05-29T06:32:08;14.10;96.20
66184;DHT22;52989;48.796;9.806;2023-05-29T06:34:34;14.30;94.40
66184;DHT22;52989;48.796;9.806;2023-05-29T06:36:59;14.40;95.10
66184;DHT22;52989;48.796;9.806;2023-05-29T06:39:25;14.50;95.10
66184;DHT22;52989;48.796;9.806;2023-05-29T06:41:50;14.60;95.30
66184;DHT22;52989;48.796;9.806;2023-05-29T06:44:16;14.90;93.40
66184;DHT22;52989;48.796;9.806;2023-05-29T06:46:41;15.00;93.40
66184;DHT22;52989;48.796;9.806;2023-05-29T06:49:07;15.20;93.10
66184;DHT22;52989;48.796;9.806;2023-05-29T06:51:33;15.40;92.70
66184;DHT22;52989;48.796;9.806;2023-05-29T06:53:58;15.60;92.60
66184;DHT22;52989;48.796;9.806;2023-05-29T06:56:24;15.70;93.20
66184;DHT22;52989;48.796;9.806;2023-05-29T06:58:51;15.80;92.50
66184;DHT22;52989;48.796;9.806;2023-05-29T07:01:16;16.00;91.80
66184;DHT22;52989;48.796;9.806;2023-05-29T07:03:42;16.10;91.30
66184;DHT22;52989;48.796;9.806;2023-05-29T07:06:07;16.20;92.60
66184;DHT22;52989;48.796;9.806;2023-05-29T07:08:33;16.20;93.00
66184;DHT22;52989;48.796;9.806;2023-05-29T07:10:59;16.60;90.50
66184;DHT22;52989;48.796;9.806;2023-05-29T07:13:24;16.60;90.80
66184;DHT22;52989;48.796;9.806;2023-05-29T07:15:50;16.60;91.30
66184;DHT22;52989;48.796;9.806;2023-05-29T07:18:15;16.90;90.00
66184;DHT22;52989;48.796;9.806;2023-05-29T07:20:41;16.90;92.00
66184;DHT22;52989;48.796;9.806;2023-05-29T07:23:06;16.80;91.90
66184;DHT22;52989;48.796;9.806;2023-05-29T07:25:32;17.10;90.10
66184;DHT22;52989;48.796;9.806;2023-05-29T07:27:58;17.30;90.60
66184;DHT22;52989;48.796;9.806;2023-05-29T07:30:23;17.40;87.90
66184;DHT22;52989;48.796;9.806;2023-05-29T07:32:49;17.50;88.70
66184;DHT22;52989;48.796;9.806;2023-05-29T07:35:14;17.70;86.60
66184;DHT22;52989;48.796;9.806;2023-05-29T07:37:40;17.80;85.50
66184;DHT22;52989;48.796;9.806;2023-05-29T07:40:06;17.80;86.60
66184;DHT22;52989;48.796;9.806;2023-05-29T07:42:32;17.90;84.10
66184;DHT22;52989;48.796;9.806;2023-05-29T07:44:58;18.20;83.10
66184;DHT22;52989;48.796;9.806;2023-05-29T07:47:23;18.20;81.20
66184;DHT22;52989;48.796;9.806;2023-05-29T07:49:49;18.30;80.80
66184;DHT22;52989;48.796;9.806;2023-05-29T07:52:14;18.40;79.60
66184;DHT22;52989;48.796;9.806;2023-05-29T07:54:40;18.50;81.90
66184;DHT22;52989;48.796;9.806;2023-05-29T07:57:06;18.60;79.60
66184;DHT22;52989;48.796;9.806;2023-05-29T07:59:35;18.80;79.70
66184;DHT22;52989;48.796;9.806;2023-05-29T08:02:00;18.80;80.90
66184;DHT22;52989;48.796;9.806;2023-05-29T08:04:28;18.90;80.70
66184;DHT22;52989;48.796;9.806;2023-05-29T08:06:53;18.80;83.10
66184;DHT22;52989;48.796;9.806;2023-05-29T08:09:19;18.90;82.30
66184;DHT22;52989;48.796;9.806;2023-05-29T08:11:44;18.90;80.90
66184;DHT22;52989;48.796;9.806;2023-05-29T08:14:12;18.80;82.40
66184;DHT22;52989;48.796;9.806;2023-05-29T08:16:37;19.10;80.20
66184;DHT22;52989;48.796;9.806;2023-05-29T08:19:02;19.20;78.70
66184;DHT22;52989;48.796;9.806;2023-05-29T08:21:29;19.20;81.20
66184;DHT22;52989;48.796;9.806;2023-05-29T08:23:55;19.30;79.10
66184;DHT22;52989;48.796;9.806;2023-05-29T08:26:20;19.50;79.70
66184;DHT22;52989;48.796;9.806;2023-05-29T08:28:46;19.70;78.60
66184;DHT22;52989;48.796;9.806;2023-05-29T08:31:11;20.00;75.90
66184;DHT22;52989;48.796;9.806;2023-05-29T08:33:37;20.00;77.10
66184;DHT22;52989;48.796;9.806;2023-05-29T08:36:02;20.20;75.40
66184;DHT22;52989;48.796;9.806;2023-05-29T08:38:28;20.30;74.30
66184;DHT22;52989;48.796;9.806;2023-05-29T08:40:55;20.40;73.50
66184;DHT22;52989;48.796;9.806;2023-05-29T08:43:22;20.60;73.10
66184;DHT22;52989;48.796;9.806;2023-05-29T08:45:48;20.60;73.20
66184;DHT22;52989;48.796;9.806;2023-05-29T08:48:16;20.50;75.90
66184;DHT22;52989;48.796;9.806;2023-05-29T08:50:43;20.50;71.50
66184;DHT22;52989;48.796;9.806;2023-05-29T08:53:10;20.80;69.80
66184;DHT22;52989;48.796;9.806;2023-05-29T08:55:36;21.00;69.90
66184;DHT22;52989;48.796;9.806;2023-05-29T08:58:02;21.00;67.30
66184;DHT22;52989;48.796;9.806;2023-05-29T09:00:27;20.90;69.10
66184;DHT22;52989;48.796;9.806;2023-05-29T09:02:54;21.20;66.90
66184;DHT22;52989;48.796;9.806;2023-05-29T09:05:20;21.30;67.70
66184;DHT22;52989;48.796;9.806;2023-05-29T09:07:46;21.30;66.90
66184;DHT22;52989;48.796;9.806;2023-05-29T09:10:14;21.30;69.40
66184;DHT22;52989;48.796;9.806;2023-05-29T09:12:40;21.30;69.00
66184;DHT22;52989;48.796;9.806;2023-05-29T09:15:18;21.30;65.70
66184;DHT22;52989;48.796;9.806;2023-05-29T09:17:44;21.60;66.30
66184;DHT22;52989;48.796;9.806;2023-05-29T09:20:16;21.70;65.40
66184;DHT22;52989;48.796;9.806;2023-05-29T09:23:00;21.80;65.90
66184;DHT22;52989;48.796;9.806;2023-05-29T09:25:27;21.90;64.50
66184;DHT22;52989;48.796;9.806;2023-05-29T09:28:05;21.80;66.30
66184;DHT22;52989;48.796;9.806;2023-05-29T09:30:43;21.80;65.00
66184;DHT22;52989;48.796;9.806;2023-05-29T09:33:09;22.00;65.50
66184;DHT22;52989;48.796;9.806;2023-05-29T09:35:39;22.10;63.80
66184;DHT22;52989;48.796;9.806;2023-05-29T09:38:08;22.10;66.50
66184;DHT22;52989;48.796;9.806;2023-05-29T09:40:34;22.10;63.30
66184;DHT22;52989;48.796;9.806;2023-05-29T09:45:39;22.40;64.00
66184;DHT22;52989;48.796;9.806;2023-05-29T09:48:05;22.60;62.70
66184;DHT22;52989;48.796;9.806;2023-05-29T09:50:31;22.60;62.10
66184;DHT22;52989;48.796;9.806;2023-05-29T09:52:59;22.80;62.90
66184;DHT22;52989;48.796;9.806;2023-05-29T09:55:27;22.70;64.20
66184;DHT22;52989;48.796;9.806;2023-05-29T09:57:54;22.70;61.00
66184;DHT22;52989;48.796;9.806;2023-05-29T10:00:20;22.60;64.40
66184;DHT22;52989;48.796;9.806;2023-05-29T10:02:50;22.60;59.80
66184;DHT22;52989;48.796;9.806;2023-05-29T10:05:16;22.70;62.80
66184;DHT22;52989;48.796;9.806;2023-05-29T10:07:43;22.80;58.50
66184;DHT22;52989;48.796;9.806;2023-05-29T10:10:09;22.80;60.50
66184;DHT22;52989;48.796;9.806;2023-05-29T10:12:38;22.90;60.40
66184;DHT22;52989;48.796;9.806;2023-05-29T10:15:05;23.00;58.70
66184;DHT22;52989;48.796;9.806;2023-05-29T10:17:35;22.90;57.80
66184;DHT22;52989;48.796;9.806;2023-05-29T10:20:01;22.90;60.90
66184;DHT22;52989;48.796;9.806;2023-05-29T10:22:28;23.00;56.60
66184;DHT22;52989;48.796;9.806;2023-05-29T10:24:53;22.70;55.60
66184;DHT22;52989;48.796;9.806;2023-05-29T10:27:21;23.00;55.30
66184;DHT22;52989;48.796;9.806;2023-05-29T10:35:18;23.60;58.20
66184;DHT22;52989;48.796;9.806;2023-05-29T10:37:57;23.20;58.40
66184;DHT22;52989;48.796;9.806;2023-05-29T10:40:26;23.40;57.90
66184;DHT22;52989;48.796;9.806;2023-05-29T10:42:52;23.30;57.50
66184;DHT22;52989;48.796;9.806;2023-05-29T10:50:40;23.20;56.50
66184;DHT22;52989;48.796;9.806;2023-05-29T10:53:06;23.40;56.60
66184;DHT22;52989;48.796;9.806;2023-05-29T10:55:35;23.50;55.20
66184;DHT22;52989;48.796;9.806;2023-05-29T10:58:04;23.70;56.10
66184;DHT22;52989;48.796;9.806;2023-05-29T11:00:30;23.70;55.70
66184;DHT22;52989;48.796;9.806;2023-05-29T11:02:55;23.80;54.70
66184;DHT22;52989;48.796;9.806;2023-05-29T11:05:23;23.80;53.10
66184;DHT22;52989;48.796;9.806;2023-05-29T11:07:50;23.80;54.70
66184;DHT22;52989;48.796;9.806;2023-05-29T11:10:40;23.80;54.20
66184;DHT22;52989;48.796;9.806;2023-05-29T11:13:04;23.80;56.30
66184;DHT22;52989;48.796;9.806;2023-05-29T11:15:32;23.70;55.90
66184;DHT22;52989;48.796;9.806;2023-05-29T11:18:05;23.90;55.10
66184;DHT22;52989;48.796;9.806;2023-05-29T11:21:04;24.00;56.70
66184;DHT22;52989;48.796;9.806;2023-05-29T11:23:23;24.10;56.80
66184;DHT22;52989;48.796;9.806;2023-05-29T11:25:50;24.30;53.60
66184;DHT22;52989;48.796;9.806;2023-05-29T11:28:16;24.40;54.00
66184;DHT22;52989;48.796;9.806;2023-05-29T11:30:45;24.30;56.00
66184;DHT22;52989;48.796;9.806;2023-05-29T11:33:18;24.10;52.30
66184;DHT22;52989;48.796;9.806;2023-05-29T11:35:44;24.10;52.40
66184;DHT22;52989;48.796;9.806;2023-05-29T11:38:10;24.30;52.70
66184;DHT22;52989;48.796;9.806;2023-05-29T11:40:36;24.30;54.30
66184;DHT22;52989;48.796;9.806;2023-05-29T11:43:03;24.30;55.50
66184;DHT22;52989;48.796;9.806;2023-05-29T11:45:31;24.50;52.70
66184;DHT22;52989;48.796;9.806;2023-05-29T11:47:57;24.70;51.90
66184;DHT22;52989;48.796;9.806;2023-05-29T11:50:24;24.70;51.80
66184;DHT22;52989;48.796;9.806;2023-05-29T11:52:50;24.70;51.40
66184;DHT22;52989;48.796;9.806;2023-05-29T11:55:19;24.70;53.70
66184;DHT22;52989;48.796;9.806;2023-05-29T11:57:49;24.60;51.50
66184;DHT22;52989;48.796;9.806;2023-05-29T12:00:15;24.80;53.20
66184;DHT22;52989;48.796;9.806;2023-05-29T12:02:41;24.60;50.00
66184;DHT22;52989;48.796;9.806;2023-05-29T12:05:12;24.40;52.30
66184;DHT22;52989;48.796;9.806;2023-05-29T12:07:57;24.60;49.70
66184;DHT22;52989;48.796;9.806;2023-05-29T12:10:25;24.40;51.10
66184;DHT22;52989;48.796;9.806;2023-05-29T12:12:52;24.40;52.20
66184;DHT22;52989;48.796;9.806;2023-05-29T12:15:18;24.70;51.40
66184;DHT22;52989;48.796;9.806;2023-05-29T12:17:44;24.90;54.40
66184;DHT22;52989;48.796;9.806;2023-05-29T12:20:10;24.90;50.10
66184;DHT22;52989;48.796;9.806;2023-05-29T12:22:37;24.60;49.80
66184;DHT22;52989;48.796;9.806;2023-05-29T12:27:36;24.50;49.50
66184;DHT22;52989;48.796;9.806;2023-05-29T12:30:07;24.60;54.40
66184;DHT22;52989;48.796;9.806;2023-05-29T12:32:34;24.60;49.90
66184;DHT22;52989;48.796;9.806;2023-05-29T12:35:00;24.70;50.00
66184;DHT22;52989;48.796;9.806;2023-05-29T12:37:25;24.90;50.10
66184;DHT22;52989;48.796;9.806;2023-05-29T12:40:09;24.90;49.70
66184;DHT22;52989;48.796;9.806;2023-05-29T12:42:37;25.00;53.00
66184;DHT22;52989;48.796;9.806;2023-05-29T12:45:02;25.10;49.60
66184;DHT22;52989;48.796;9.806;2023-05-29T12:47:29;25.10;49.50
66184;DHT22;52989;48.796;9.806;2023-05-29T12:49:54;25.00;50.50
66184;DHT22;52989;48.796;9.806;2023-05-29T12:52:23;25.10;49.70
66184;DHT22;52989;48.796;9.806;2023-05-29T12:54:48;25.10;48.80
66184;DHT22;52989;48.796;9.806;2023-05-29T12:57:14;25.20;50.50
66184;DHT22;52989;48.796;9.806;2023-05-29T12:59:41;25.20;51.00
66184;DHT22;52989;48.796;9.806;2023-05-29T13:02:06;25.40;49.50
66184;DHT22;52989;48.796;9.806;2023-05-29T13:04:35;25.40;50.50
66184;DHT22;52989;48.796;9.806;2023-05-29T13:07:00;25.30;47.90
66184;DHT22;52989;48.796;9.806;2023-05-29T13:09:26;25.10;49.00
66184;DHT22;52989;48.796;9.806;2023-05-29T13:11:51;25.00;48.20
66184;DHT22;52989;48.796;9.806;2023-05-29T13:14:18;25.30;50.10
66184;DHT22;52989;48.796;9.806;2023-05-29T13:16:43;25.50;52.70
66184;DHT22;52989;48.796;9.806;2023-05-29T13:19:09;25.50;49.90
66184;DHT22;52989;48.796;9.806;2023-05-29T13:21:34;25.50;48.70
66184;DHT22;52989;48.796;9.806;2023-05-29T13:24:00;25.60;46.70
66184;DHT22;52989;48.796;9.806;2023-05-29T13:26:26;25.50;46.50
66184;DHT22;52989;48.796;9.806;2023-05-29T13:28:52;25.60;47.10
66184;DHT22;52989;48.796;9.806;2023-05-29T13:31:17;25.50;48.30
66184;DHT22;52989;48.796;9.806;2023-05-29T13:33:43;25.40;46.90
66184;DHT22;52989;48.796;9.806;2023-05-29T13:36:08;25.30;47.50
66184;DHT22;52989;48.796;9.806;2023-05-29T13:38:34;25.60;47.60
66184;DHT22;52989;48.796;9.806;2023-05-29T13:40:59;25.70;47.70
66184;DHT22;52989;48.796;9.806;2023-05-29T13:43:25;25.70;46.00
66184;DHT22;52989;48.796;9.806;2023-05-29T13:45:50;25.80;45.40
66184;DHT22;52989;48.796;9.806;2023-05-29T13:48:16;25.90;46.60
66184;DHT22;52989;48.796;9.806;2023-05-29T13:50:43;25.60;46.10
66184;DHT22;52989;48.796;9.806;2023-05-29T13:53:08;25.80;47.00
66184;DHT22;52989;48.796;9.806;2023-05-29T13:55:33;25.80;46.70
66184;DHT22;52989;48.796;9.806;2023-05-29T13:57:59;26.00;45.80
66184;DHT22;52989;48.796;9.806;2023-05-29T14:00:25;25.70;45.90
66184;DHT22;52989;48.796;9.806;2023-05-29T14:02:50;25.70;46.70
66184;DHT22;52989;48.796;9.806;2023-05-29T14:05:15;25.80;45.00
66184;DHT22;52989;48.796;9.806;2023-05-29T14:07:41;26.00;44.10
66184;DHT22;52989;48.796;9.806;2023-05-29T14:10:06;26.20;44.70
66184;DHT22;52989;48.796;9.806;2023-05-29T14:12:33;25.90;43.60
66184;DHT22;52989;48.796;9.806;2023-05-29T14:15:00;26.00;46.00
66184;DHT22;52989;48.796;9.806;2023-05-29T14:17:25;26.00;46.80
66184;DHT22;52989;48.796;9.806;2023-05-29T14:19:51;25.90;46.40
66184;DHT22;52989;48.796;9.806;2023-05-29T14:22:16;25.60;45.60
66184;DHT22;52989;48.796;9.806;2023-05-29T14:24:42;25.70;44.00
66184;DHT22;52989;48.796;9.806;2023-05-29T14:27:07;25.80;45.20
66184;DHT22;52989;48.796;9.806;2023-05-29T14:29:33;25.90;44.00
66184;DHT22;52989;48.796;9.806;2023-05-29T14:31:58;25.70;44.50
66184;DHT22;52989;48.796;9.806;2023-05-29T14:34:24;25.80;46.40
66184;DHT22;52989;48.796;9.806;2023-05-29T14:36:49;25.90;44.50
66184;DHT22;52989;48.796;9.806;2023-05-29T14:39:14;25.90;48.20
66184;DHT22;52989;48.796;9.806;2023-05-29T14:41:40;25.80;45.60
66184;DHT22;52989;48.796;9.806;2023-05-29T14:44:06;26.00;45.30
66184;DHT22;52989;48.796;9.806;2023-05-29T14:46:31;25.90;46.80
66184;DHT22;52989;48.796;9.806;2023-05-29T14:48:57;26.00;45.30
66184;DHT22;52989;48.796;9.806;2023-05-29T14:51:23;25.90;44.90
66184;DHT22;52989;48.796;9.806;2023-05-29T14:53:49;26.00;47.70
66184;DHT22;52989;48.796;9.806;2023-05-29T14:56:15;25.90;47.10
66184;DHT22;52989;48.796;9.806;2023-05-29T14:58:41;25.90;45.00
66184;DHT22;52989;48.796;9.806;2023-05-29T15:01:07;25.80;44.80
66184;DHT22;52989;48.796;9.806;2023-05-29T15:03:33;26.00;44.90
66184;DHT22;52989;48.796;9.806;2023-05-29T15:06:00;26.00;47.90
66184;DHT22;52989;48.796;9.806;2023-05-29T15:08:26;26.20;45.30
66184;DHT22;52989;48.796;9.806;2023-05-29T15:10:53;26.40;46.40
66184;DHT22;52989;48.796;9.806;2023-05-29T15:13:18;26.30;46.30
66184;DHT22;52989;48.796;9.806;2023-05-29T15:15:44;26.20;45.20
66184;DHT22;52989;48.796;9.806;2023-05-29T15:18:09;26.30;44.50
66184;DHT22;52989;48.796;9.806;2023-05-29T15:20:35;26.00;43.80
66184;DHT22;52989;48.796;9.806;2023-05-29T15:23:00;25.90;46.60
66184;DHT22;52989;48.796;9.806;2023-05-29T15:25:26;26.00;44.40
66184;DHT22;52989;48.796;9.806;2023-05-29T15:27:51;26.00;45.50
66184;DHT22;52989;48.796;9.806;2023-05-29T15:30:17;25.90;44.30
66184;DHT22;52989;48.796;9.806;2023-05-29T15:32:46;26.00;46.50
66184;DHT22;52989;48.796;9.806;2023-05-29T15:35:15;25.90;44.90
66184;DHT22;52989;48.796;9.806;2023-05-29T15:37:41;25.70;46.30
66184;DHT22;52989;48.796;9.806;2023-05-29T15:40:07;25.80;45.50
66184;DHT22;52989;48.796;9.806;2023-05-29T15:42:34;25.90;45.30
66184;DHT22;52989;48.796;9.806;2023-05-29T15:45:00;25.80;44.80
66184;DHT22;52989;48.796;9.806;2023-05-29T15:47:27;25.90;44.60
66184;DHT22;52989;48.796;9.806;2023-05-29T15:49:54;25.70;43.40
66184;DHT22;52989;48.796;9.806;2023-05-29T15:52:19;25.70;45.30
66184;DHT22;52989;48.796;9.806;2023-05-29T15:54:45;25.70;44.80
66184;DHT22;52989;48.796;9.806;2023-05-29T15:57:10;25.60;46.70
66184;DHT22;52989;48.796;9.806;2023-05-29T15:59:36;25.60;47.60